Time,TemperatureF,DewpointF,PressureIn,WindDirection,WindDirectionDegrees,WindSpeedMPH,WindSpeedGustMPH,Humidity,HourlyPrecipIn,Conditions,Clouds,dailyrainin,SoftwareType,DateUTC
2013-03-22 00:03:00,23.0,17.0,29.32,South,191,0.0,-999.0,77,-99.99,,,-99.99,,2013-03-22 04:03:00,
2013-03-22 00:12:00,23.0,17.0,29.32,South,191,0.0,-999.0,77,-99.99,,,-99.99,,2013-03-22 04:12:00,
2013-03-22 00:23:00,24.0,17.0,29.29,South,191,0.0,-999.0,75,-99.99,,,-99.99,,2013-03-22 04:23:00,
2013-03-22 00:32:00,24.0,18.0,29.33,South,191,0.0,-999.0,76,-99.99,,,-99.99,,2013-03-22 04:32:00,
2013-03-22 00:43:00,24.0,18.0,29.33,South,191,0.0,-999.0,76,-99.99,,,-99.99,,2013-03-22 04:43:00,
2013-03-22 00:52:00,24.0,18.0,29.29,South,191,0.0,-999.0,78,-99.99,,,-99.99,,2013-03-22 04:52:00,
2013-03-22 01:02:00,23.0,17.0,29.33,South,191,0.0,-999.0,79,-99.99,,,-99.99,,2013-03-22 05:02:00,
2013-03-22 01:12:00,23.0,17.0,29.33,South,191,0.0,-999.0,79,-99.99,,,-99.99,,2013-03-22 05:12:00,
2013-03-22 01:22:00,22.0,17.0,29.30,South,191,0.0,-999.0,81,-99.99,,,-99.99,,2013-03-22 05:22:00,
2013-03-22 01:32:00,20.0,15.0,29.34,South,191,0.0,-999.0,82,-99.99,,,-99.99,,2013-03-22 05:32:00,
2013-03-22 01:42:00,20.0,15.0,29.34,South,191,0.0,-999.0,82,-99.99,,,-99.99,,2013-03-22 05:42:00,
2013-03-22 01:52:00,20.0,16.0,29.30,South,191,0.0,-999.0,84,-99.99,,,-99.99,,2013-03-22 05:52:00,
2013-03-22 02:02:00,19.0,15.0,29.34,South,191,0.0,-999.0,84,-99.99,,,-99.99,,2013-03-22 06:02:00,
2013-03-22 02:13:00,19.0,15.0,29.34,South,191,0.0,-999.0,84,-99.99,,,-99.99,,2013-03-22 06:13:00,
2013-03-22 02:22:00,19.0,15.0,29.29,South,191,0.0,-999.0,83,-99.99,,,-99.99,,2013-03-22 06:22:00,
2013-03-22 02:32:00,19.0,15.0,29.34,South,191,0.0,-999.0,83,-99.99,,,-99.99,,2013-03-22 06:32:00,
2013-03-22 02:42:00,19.0,15.0,29.34,South,191,0.0,-999.0,83,-99.99,,,-99.99,,2013-03-22 06:42:00,
2013-03-22 02:52:00,21.0,16.0,29.30,South,191,0.0,-999.0,81,-99.99,,,-99.99,,2013-03-22 06:52:00,
2013-03-22 03:03:00,21.0,16.0,29.34,South,191,0.0,-999.0,81,-99.99,,,-99.99,,2013-03-22 07:03:00,
2013-03-22 03:12:00,21.0,16.0,29.34,South,191,0.0,-999.0,81,-99.99,,,-99.99,,2013-03-22 07:12:00,
2013-03-22 03:22:00,20.0,16.0,29.30,South,191,0.0,-999.0,83,-99.99,,,-99.99,,2013-03-22 07:22:00,
2013-03-22 03:32:00,20.0,16.0,29.34,South,191,0.0,-999.0,83,-99.99,,,-99.99,,2013-03-22 07:32:00,
2013-03-22 03:42:00,20.0,16.0,29.34,South,191,0.0,-999.0,83,-99.99,,,-99.99,,2013-03-22 07:42:00,
2013-03-22 03:52:00,20.0,16.0,29.29,South,191,0.0,-999.0,83,-99.99,,,-99.99,,2013-03-22 07:52:00,
2013-03-22 04:03:00,19.0,15.0,29.33,South,191,0.0,-999.0,83,-99.99,,,-99.99,,2013-03-22 08:03:00,
2013-03-22 04:13:00,19.0,15.0,29.33,South,191,0.0,-999.0,83,-99.99,,,-99.99,,2013-03-22 08:13:00,
2013-03-22 04:22:00,20.0,16.0,29.29,South,191,0.0,-999.0,84,-99.99,,,-99.99,,2013-03-22 08:22:00,
2013-03-22 04:32:00,19.0,15.0,29.33,South,191,0.0,-999.0,84,-99.99,,,-99.99,,2013-03-22 08:32:00,
2013-03-22 04:42:00,19.0,15.0,29.33,South,191,0.0,-999.0,84,-99.99,,,-99.99,,2013-03-22 08:42:00,
2013-03-22 04:52:00,18.0,14.0,29.29,South,191,0.0,-999.0,85,-99.99,,,-99.99,,2013-03-22 08:52:00,
2013-03-22 05:02:00,17.0,14.0,29.33,South,191,0.0,-999.0,87,-99.99,,,-99.99,,2013-03-22 09:02:00,
2013-03-22 05:12:00,17.0,14.0,29.33,South,191,0.0,-999.0,87,-99.99,,,-99.99,,2013-03-22 09:12:00,
2013-03-22 05:22:00,16.0,13.0,29.33,South,191,0.0,-999.0,87,-99.99,,,-99.99,,2013-03-22 09:22:00,
2013-03-22 05:32:00,16.0,13.0,29.33,South,191,0.0,-999.0,87,-99.99,,,-99.99,,2013-03-22 09:32:00,
2013-03-22 05:42:00,16.0,13.0,29.33,South,191,0.0,-999.0,87,-99.99,,,-99.99,,2013-03-22 09:42:00,
2013-03-22 05:53:00,16.0,14.0,29.29,South,191,0.0,-999.0,90,-99.99,,,-99.99,,2013-03-22 09:53:00,
2013-03-22 06:04:00,15.0,13.0,29.33,South,191,0.0,-999.0,90,-99.99,,,-99.99,,2013-03-22 10:04:00,
2013-03-22 06:12:00,15.0,13.0,29.33,South,191,0.0,-999.0,90,-99.99,,,-99.99,,2013-03-22 10:12:00,
2013-03-22 06:23:00,15.0,13.0,29.29,South,191,0.0,-999.0,90,-99.99,,,-99.99,,2013-03-22 10:23:00,
2013-03-22 06:33:00,14.0,12.0,29.33,South,191,0.0,-999.0,91,-99.99,,,-99.99,,2013-03-22 10:33:00,
2013-03-22 06:42:00,14.0,12.0,29.33,South,191,0.0,-999.0,91,-99.99,,,-99.99,,2013-03-22 10:42:00,
2013-03-22 06:52:00,14.0,12.0,29.30,South,191,0.0,-999.0,90,-99.99,,,-99.99,,2013-03-22 10:52:00,
2013-03-22 07:03:00,13.0,11.0,29.34,South,191,0.0,-999.0,91,-99.99,,,-99.99,,2013-03-22 11:03:00,
2013-03-22 07:12:00,13.0,11.0,29.34,South,191,0.0,-999.0,91,-99.99,,,-99.99,,2013-03-22 11:12:00,
2013-03-22 07:22:00,13.0,11.0,29.30,South,191,0.0,-999.0,91,-99.99,,,-99.99,,2013-03-22 11:22:00,
2013-03-22 07:33:00,13.0,11.0,29.35,South,191,0.0,-999.0,92,-99.99,,,-99.99,,2013-03-22 11:33:00,
2013-03-22 07:42:00,13.0,11.0,29.35,South,191,0.0,-999.0,92,-99.99,,,-99.99,,2013-03-22 11:42:00,
2013-03-22 07:52:00,13.0,11.0,29.35,South,191,0.0,-999.0,91,-99.99,,,-99.99,,2013-03-22 11:52:00,
2013-03-22 08:02:00,14.0,12.0,29.35,South,191,0.0,-999.0,92,-99.99,,,-99.99,,2013-03-22 12:02:00,
2013-03-22 08:12:00,14.0,12.0,29.35,South,191,0.0,-999.0,92,-99.99,,,-99.99,,2013-03-22 12:12:00,
2013-03-22 08:22:00,15.0,13.0,29.32,South,191,0.0,-999.0,92,-99.99,,,-99.99,,2013-03-22 12:22:00,
2013-03-22 08:32:00,15.0,13.0,29.36,South,191,0.0,-999.0,92,-99.99,,,-99.99,,2013-03-22 12:32:00,
2013-03-22 08:42:00,15.0,13.0,29.36,South,191,0.0,-999.0,92,-99.99,,,-99.99,,2013-03-22 12:42:00,
2013-03-22 08:52:00,17.0,15.0,29.32,South,191,0.0,-999.0,90,-99.99,,,-99.99,,2013-03-22 12:52:00,
2013-03-22 09:02:00,17.0,15.0,29.36,South,191,0.0,-999.0,90,-99.99,,,-99.99,,2013-03-22 13:02:00,
2013-03-22 09:13:00,17.0,15.0,29.36,South,191,0.0,-999.0,90,-99.99,,,-99.99,,2013-03-22 13:13:00,
2013-03-22 09:22:00,20.0,17.0,29.32,South,191,0.0,-999.0,87,-99.99,,,-99.99,,2013-03-22 13:22:00,
2013-03-22 09:32:00,20.0,16.0,29.36,South,191,0.0,-999.0,83,-99.99,,,-99.99,,2013-03-22 13:32:00,
2013-03-22 09:42:00,20.0,16.0,29.36,South,191,0.0,-999.0,83,-99.99,,,-99.99,,2013-03-22 13:42:00,
2013-03-22 09:53:00,22.0,17.0,29.32,South,191,0.0,-999.0,82,-99.99,,,-99.99,,2013-03-22 13:53:00,
2013-03-22 10:03:00,22.0,17.0,29.36,South,178,0.0,-999.0,80,-99.99,,,-99.99,,2013-03-22 14:03:00,
2013-03-22 10:12:00,22.0,17.0,29.36,South,178,0.0,-999.0,80,-99.99,,,-99.99,,2013-03-22 14:12:00,
2013-03-22 10:22:00,25.0,19.0,29.32,SSE,152,0.0,-999.0,76,-99.99,,,-99.99,,2013-03-22 14:22:00,
2013-03-22 10:32:00,26.0,19.0,29.35,SE,142,0.0,-999.0,75,-99.99,,,-99.99,,2013-03-22 14:32:00,
2013-03-22 10:43:00,26.0,19.0,29.35,SE,142,0.0,-999.0,75,-99.99,,,-99.99,,2013-03-22 14:43:00,
2013-03-22 10:52:00,29.0,20.0,29.31,SE,126,1.0,-999.0,69,-99.99,,,-99.99,,2013-03-22 14:52:00,
2013-03-22 11:03:00,29.0,19.0,29.35,ENE,72,1.0,-999.0,67,-99.99,,,-99.99,,2013-03-22 15:03:00,
2013-03-22 11:12:00,29.0,19.0,29.35,ENE,72,1.0,-999.0,67,-99.99,,,-99.99,,2013-03-22 15:12:00,
2013-03-22 11:22:00,29.0,19.0,29.31,East,95,2.0,-999.0,66,-99.99,,,-99.99,,2013-03-22 15:22:00,
2013-03-22 11:33:00,29.0,19.0,29.35,East,95,0.0,-999.0,66,-99.99,,,-99.99,,2013-03-22 15:33:00,
2013-03-22 11:43:00,29.0,19.0,29.35,East,95,0.0,-999.0,66,-99.99,,,-99.99,,2013-03-22 15:43:00,
2013-03-22 11:53:00,31.0,19.0,29.30,ENE,67,4.0,-999.0,61,-99.99,,,-99.99,,2013-03-22 15:53:00,
2013-03-22 12:03:00,31.0,20.0,29.34,East,90,1.0,-999.0,62,-99.99,,,-99.99,,2013-03-22 16:03:00,
2013-03-22 12:13:00,31.0,20.0,29.34,East,90,1.0,-999.0,62,-99.99,,,-99.99,,2013-03-22 16:13:00,
2013-03-22 12:23:00,31.0,20.0,29.30,ESE,104,2.0,-999.0,63,-99.99,,,-99.99,,2013-03-22 16:23:00,
2013-03-22 12:32:00,31.0,19.0,29.33,East,84,2.0,-999.0,60,-99.99,,,-99.99,,2013-03-22 16:32:00,
2013-03-22 12:42:00,31.0,19.0,29.33,East,84,2.0,-999.0,60,-99.99,,,-99.99,,2013-03-22 16:42:00,
2013-03-22 12:52:00,32.0,19.0,29.29,SSW,202,1.0,-999.0,59,-99.99,,,-99.99,,2013-03-22 16:52:00,
2013-03-22 13:03:00,31.0,18.0,29.34,SSW,192,3.0,-999.0,59,-99.99,,,-99.99,,2013-03-22 17:03:00,
2013-03-22 13:12:00,31.0,18.0,29.33,SW,222,3.0,-999.0,57,-99.99,,,-99.99,,2013-03-22 17:12:00,
2013-03-22 13:23:00,31.0,18.0,29.33,SW,222,3.0,-999.0,57,-99.99,,,-99.99,,2013-03-22 17:23:00,
2013-03-22 13:32:00,31.0,18.0,29.33,SW,222,3.0,-999.0,57,-99.99,,,-99.99,,2013-03-22 17:32:00,
2013-03-22 13:42:00,31.0,18.0,29.33,SW,222,3.0,-999.0,57,-99.99,,,-99.99,,2013-03-22 17:42:00,
2013-03-22 13:53:00,33.0,18.0,29.29,North,355,2.0,-999.0,54,-99.99,,,-99.99,,2013-03-22 17:53:00,
2013-03-22 14:02:00,34.0,18.0,29.32,SW,216,2.0,-999.0,52,-99.99,,,-99.99,,2013-03-22 18:02:00,
2013-03-22 14:12:00,34.0,18.0,29.32,SW,216,2.0,-999.0,52,-99.99,,,-99.99,,2013-03-22 18:12:00,
2013-03-22 14:22:00,35.0,18.0,29.28,SSE,155,2.0,-999.0,49,-99.99,,,-99.99,,2013-03-22 18:22:00,
2013-03-22 14:33:00,33.0,16.0,29.32,WNW,299,3.0,-999.0,50,-99.99,,,-99.99,,2013-03-22 18:33:00,
2013-03-22 14:42:00,33.0,16.0,29.32,WNW,299,3.0,-999.0,50,-99.99,,,-99.99,,2013-03-22 18:42:00,
2013-03-22 14:52:00,35.0,18.0,29.27,ESE,115,0.0,-999.0,50,-99.99,,,-99.99,,2013-03-22 18:52:00,
2013-03-22 15:02:00,34.0,17.0,29.31,SSW,197,3.0,-999.0,50,-99.99,,,-99.99,,2013-03-22 19:02:00,
2013-03-22 15:12:00,34.0,17.0,29.31,SSW,197,3.0,-999.0,50,-99.99,,,-99.99,,2013-03-22 19:12:00,
2013-03-22 15:22:00,34.0,19.0,29.27,SE,142,3.0,-999.0,54,-99.99,,,-99.99,,2013-03-22 19:22:00,
2013-03-22 15:32:00,34.0,19.0,29.27,SE,142,3.0,-999.0,54,-99.99,,,-99.99,,2013-03-22 19:32:00,
2013-03-22 15:42:00,34.0,19.0,29.27,SE,142,3.0,-999.0,54,-99.99,,,-99.99,,2013-03-22 19:42:00,
2013-03-22 15:52:00,33.0,19.0,29.31,SE,130,1.0,-999.0,56,-99.99,,,-99.99,,2013-03-22 19:52:00,
2013-03-22 16:02:00,33.0,19.0,29.31,SSW,206,2.0,-999.0,57,-99.99,,,-99.99,,2013-03-22 20:02:00,
2013-03-22 16:13:00,33.0,19.0,29.31,SSW,206,2.0,-999.0,57,-99.99,,,-99.99,,2013-03-22 20:13:00,
2013-03-22 16:22:00,33.0,21.0,29.28,SE,126,3.0,-999.0,61,-99.99,,,-99.99,,2013-03-22 20:22:00,
2013-03-22 16:32:00,32.0,20.0,29.31,SSE,153,2.0,-999.0,61,-99.99,,,-99.99,,2013-03-22 20:32:00,
2013-03-22 16:43:00,32.0,20.0,29.31,SSE,153,2.0,-999.0,61,-99.99,,,-99.99,,2013-03-22 20:43:00,
2013-03-22 16:52:00,33.0,22.0,29.28,ESE,111,1.0,-999.0,63,-99.99,,,-99.99,,2013-03-22 20:52:00,
2013-03-22 17:03:00,32.0,21.0,29.32,ESE,122,0.0,-999.0,63,-99.99,,,-99.99,,2013-03-22 21:03:00,
2013-03-22 17:12:00,33.0,21.0,29.28,SSW,199,1.0,-999.0,61,-99.99,,,-99.99,,2013-03-22 21:12:00,
2013-03-22 17:22:00,33.0,21.0,29.28,SSW,199,1.0,-999.0,61,-99.99,,,-99.99,,2013-03-22 21:22:00,
2013-03-22 17:33:00,33.0,19.0,29.32,South,173,2.0,-999.0,57,-99.99,,,-99.99,,2013-03-22 21:33:00,
2013-03-22 17:43:00,33.0,19.0,29.32,South,173,2.0,-999.0,57,-99.99,,,-99.99,,2013-03-22 21:43:00,
2013-03-22 17:53:00,32.0,23.0,29.28,South,184,3.0,-999.0,69,-99.99,,,-99.99,,2013-03-22 21:53:00,
2013-03-22 18:03:00,31.0,22.0,29.32,South,184,0.0,-999.0,68,-99.99,,,-99.99,,2013-03-22 22:03:00,
2013-03-22 18:12:00,31.0,22.0,29.32,South,184,0.0,-999.0,68,-99.99,,,-99.99,,2013-03-22 22:12:00,
2013-03-22 18:23:00,31.0,23.0,29.28,SSW,210,2.0,-999.0,71,-99.99,,,-99.99,,2013-03-22 22:23:00,
2013-03-22 18:32:00,30.0,22.0,29.33,SSE,149,1.0,-999.0,72,-99.99,,,-99.99,,2013-03-22 22:32:00,
2013-03-22 18:43:00,30.0,22.0,29.33,SSE,149,1.0,-999.0,72,-99.99,,,-99.99,,2013-03-22 22:43:00,
2013-03-22 18:53:00,30.0,22.0,29.34,SW,233,1.0,-999.0,73,-99.99,,,-99.99,,2013-03-22 22:53:00,
2013-03-22 19:02:00,30.0,22.0,29.34,SW,233,1.0,-999.0,73,-99.99,,,-99.99,,2013-03-22 23:02:00,
2013-03-22 19:12:00,30.0,22.0,29.34,SW,233,1.0,-999.0,73,-99.99,,,-99.99,,2013-03-22 23:12:00,
2013-03-22 19:22:00,30.0,21.0,29.31,SW,216,3.0,-999.0,70,-99.99,,,-99.99,,2013-03-22 23:22:00,
2013-03-22 19:32:00,30.0,21.0,29.35,SE,124,2.0,-999.0,70,-99.99,,,-99.99,,2013-03-22 23:32:00,
2013-03-22 19:42:00,30.0,21.0,29.35,SE,124,2.0,-999.0,70,-99.99,,,-99.99,,2013-03-22 23:42:00,
2013-03-22 19:52:00,30.0,23.0,29.32,South,183,1.0,-999.0,74,-99.99,,,-99.99,,2013-03-22 23:52:00,
2013-03-22 20:02:00,29.0,22.0,29.36,SSE,165,0.0,-999.0,74,-99.99,,,-99.99,,2013-03-23 00:02:00,
2013-03-22 20:12:00,29.0,22.0,29.36,SSE,165,0.0,-999.0,74,-99.99,,,-99.99,,2013-03-23 00:12:00,
2013-03-22 20:23:00,30.0,22.0,29.33,SSE,153,2.0,-999.0,71,-99.99,,,-99.99,,2013-03-23 00:23:00,
2013-03-22 20:33:00,29.0,20.0,29.37,SW,228,1.0,-999.0,70,-99.99,,,-99.99,,2013-03-23 00:33:00,
2013-03-22 20:42:00,29.0,20.0,29.37,SW,228,1.0,-999.0,70,-99.99,,,-99.99,,2013-03-23 00:42:00,
2013-03-22 20:52:00,29.0,24.0,29.34,SSE,148,2.0,-999.0,81,-99.99,,,-99.99,,2013-03-23 00:52:00,
2013-03-22 21:03:00,27.0,23.0,29.39,SE,135,2.0,-999.0,83,-99.99,,,-99.99,,2013-03-23 01:03:00,
2013-03-22 21:12:00,27.0,23.0,29.39,SE,135,2.0,-999.0,83,-99.99,,,-99.99,,2013-03-23 01:12:00,
2013-03-22 21:22:00,27.0,20.0,29.39,SW,224,4.0,-999.0,75,-99.99,,,-99.99,,2013-03-23 01:22:00,
2013-03-22 21:32:00,27.0,20.0,29.39,SW,224,4.0,-999.0,75,-99.99,,,-99.99,,2013-03-23 01:32:00,
2013-03-22 21:42:00,27.0,20.0,29.39,SW,224,4.0,-999.0,75,-99.99,,,-99.99,,2013-03-23 01:42:00,
2013-03-22 21:52:00,27.0,19.0,29.35,ESE,112,4.0,-999.0,70,-99.99,,,-99.99,,2013-03-23 01:52:00,
2013-03-22 22:02:00,26.0,18.0,29.39,SE,137,3.0,-999.0,70,-99.99,,,-99.99,,2013-03-23 02:02:00,
2013-03-22 22:12:00,26.0,18.0,29.39,SE,137,3.0,-999.0,70,-99.99,,,-99.99,,2013-03-23 02:12:00,
2013-03-22 22:22:00,26.0,18.0,29.35,SSE,150,2.0,-999.0,71,-99.99,,,-99.99,,2013-03-23 02:22:00,
2013-03-22 22:32:00,25.0,17.0,29.40,SSE,159,2.0,-999.0,71,-99.99,,,-99.99,,2013-03-23 02:32:00,
2013-03-22 22:42:00,25.0,17.0,29.40,SSE,159,2.0,-999.0,71,-99.99,,,-99.99,,2013-03-23 02:42:00,
2013-03-22 22:52:00,25.0,18.0,29.35,South,176,0.0,-999.0,74,-99.99,,,-99.99,,2013-03-23 02:52:00,
2013-03-22 23:02:00,24.0,18.0,29.39,SSW,192,0.0,-999.0,76,-99.99,,,-99.99,,2013-03-23 03:02:00,
2013-03-22 23:12:00,24.0,18.0,29.39,SSW,192,0.0,-999.0,76,-99.99,,,-99.99,,2013-03-23 03:12:00,
2013-03-22 23:23:00,25.0,19.0,29.35,SSW,193,0.0,-999.0,77,-99.99,,,-99.99,,2013-03-23 03:23:00,
2013-03-22 23:33:00,24.0,18.0,29.39,SSE,168,0.0,-999.0,78,-99.99,,,-99.99,,2013-03-23 03:33:00,
2013-03-22 23:43:00,24.0,18.0,29.39,SSE,168,0.0,-999.0,78,-99.99,,,-99.99,,2013-03-23 03:43:00,
2013-03-22 23:53:00,25.0,19.0,29.36,SE,135,1.0,-999.0,79,-99.99,,,-99.99,,2013-03-23 03:53:00,